Strona główna
METAR-TAF:

METAR-TAF

Lotnisko :

Port lotniczy Malakka

Malakka, Malezja

Szerokość geograficzna: 02-16N, Długość geograficzna: 102-15E, wysokość: 11 m

Aktualna obserwacja pogody

Raport powstał 47 minut temu, godzina 21:00 UTC
Wiatr 2 kt z kierunków zmiennych
Temperatura 25°C
Wilgotność 94%
Ciśnienie 1010 hPa
Widzialność 10 km lub więcej
Mało chmury na wysokości 2800 ft

METAR: WMKM 102100Z VRB02KT 9999 FEW028 25/24 Q1010

czas: 05:47 (21:47 UTC)

Prognoza

Raport powstał 4 godziny i 47 minut temu, godzina 17:00 UTC
Prognoza ważna od 10 godzina 18 UTC do 11 godzina 18 UTC
Wiatr 3 kt z kierunków zmiennych
Widzialność 10 km lub więcej
Mało chmury na wysokości 2800 ft

TAF: WMKM 101700Z 1018/1118 VRB03KT 9999 FEW028

Obserwacja i prognoza pogody dla ponad 4000 lotnisk (raport METAR i TAF).

Dostępne stacje oznaczono żółtymi i czerwonymi punktami na mapie.

Najedź kursorem aby zobaczyć nazwę stacji.

Kliknij aby zobaczyć obserwacje i prognozy pogody.

Aby zmienić mapę: kliknij na zielony przycisk z czarnym krzyżykiem, aby powiększyć; na zielony przycisk z myślnikiem, aby pomniejszyć; na zielone strzałki, aby przejść do map sąsiednich.


METAR-TAF: